Time;durP1;ratioP1;P1;durP2;ratioP2;P2;SDS_P1;SDS_P2;PMS_P1;PMS_P2;Temp;Humidity;BMP_temperature;BMP_pressure;BME280_temperature;BME280_humidity;BME280_pressure;Samples;Min_cycle;Max_cycle;Signal;HPM_P1;HPM_P2
2023/09/18 00:00:49;;;;;;;8.10;4.72;;;;;21.70;97839.00;;;;5052703;28;20132;-66
2023/09/18 00:03:20;;;;;;;8.27;5.22;;;;;21.60;97826.00;;;;5052831;28;20194;-67
2023/09/18 00:05:50;;;;;;;9.00;4.40;;;;;21.70;97832.00;;;;5050670;28;20041;-67
2023/09/18 00:08:17;;;;;;;7.93;4.72;;;;;21.80;97837.00;;;;5034933;28;20048;-67
2023/09/18 00:10:50;;;;;;;9.25;4.88;;;;;21.90;97836.00;;;;5051484;28;20048;-67
2023/09/18 00:13:16;;;;;;;9.35;4.68;;;;;22.00;97839.00;;;;5035155;28;20402;-68
2023/09/18 00:15:46;;;;;;;8.55;4.68;;;;;22.10;97839.00;;;;5050460;28;20063;-67
2023/09/18 00:18:14;;;;;;;8.07;4.90;;;;;22.00;97831.00;;;;5052768;28;20049;-66
2023/09/18 00:20:42;;;;;;;9.40;5.18;;;;;21.80;97835.00;;;;5051340;28;20045;-66
2023/09/18 00:23:09;;;;;;;5.43;4.50;;;;;21.70;97835.00;;;;5052614;28;20077;-66
2023/09/18 00:25:36;;;;;;;7.15;4.22;;;;;21.60;97828.00;;;;5050226;28;20037;-66
2023/09/18 00:28:04;;;;;;;7.30;4.60;;;;;21.50;97817.00;;;;5052781;28;20041;-66
2023/09/18 00:30:31;;;;;;;9.20;4.63;;;;;21.50;97823.00;;;;5052105;28;20041;-66
2023/09/18 00:32:57;;;;;;;9.70;4.63;;;;;21.50;97818.00;;;;5052755;28;20069;-67
2023/09/18 00:35:24;;;;;;;10.38;5.07;;;;;21.40;97818.00;;;;5051082;28;20080;-66
2023/09/18 00:37:50;;;;;;;7.15;4.20;;;;;21.50;97821.00;;;;5051961;28;20410;-67
2023/09/18 00:40:18;;;;;;;9.93;4.80;;;;;21.60;97823.00;;;;5052229;28;20045;-66
2023/09/18 00:42:45;;;;;;;9.98;4.95;;;;;21.70;97819.00;;;;5053242;28;20133;-66
2023/09/18 00:45:12;;;;;;;8.23;4.15;;;;;21.70;97830.00;;;;5033932;28;20052;-66
2023/09/18 00:47:39;;;;;;;5.45;4.00;;;;;21.80;97827.00;;;;5052646;28;20041;-66
2023/09/18 00:50:11;;;;;;;7.18;3.58;;;;;21.80;97838.00;;;;5052512;28;20116;-66
2023/09/18 00:52:38;;;;;;;8.38;4.50;;;;;21.80;97840.00;;;;5051365;28;20049;-66
2023/09/18 00:55:06;;;;;;;8.65;4.45;;;;;21.70;97844.00;;;;5050326;28;20521;-66
2023/09/18 00:57:34;;;;;;;10.43;3.97;;;;;21.70;97828.00;;;;5053378;28;20131;-66
2023/09/18 01:00:03;;;;;;;6.40;4.45;;;;;21.50;97830.00;;;;5051072;28;20041;-66
2023/09/18 01:02:30;;;;;;;8.07;4.00;;;;;21.50;97841.00;;;;5050710;28;20106;-66
2023/09/18 01:04:57;;;;;;;5.13;4.07;;;;;21.60;97844.00;;;;5049661;28;20064;-66
2023/09/18 01:07:24;;;;;;;8.93;4.10;;;;;21.60;97847.00;;;;5050831;28;20057;-66
2023/09/18 01:09:54;;;;;;;7.20;4.43;;;;;21.70;97854.00;;;;5051904;28;20048;-66
2023/09/18 01:12:28;;;;;;;6.70;3.92;;;;;21.80;97860.00;;;;5050634;28;20052;-66
2023/09/18 01:15:00;;;;;;;7.55;4.32;;;;;21.80;97862.00;;;;5049978;28;20068;-66
2023/09/18 01:17:27;;;;;;;9.02;4.05;;;;;21.80;97865.00;;;;5050409;28;20155;-66
2023/09/18 01:19:54;;;;;;;5.20;3.65;;;;;21.80;97860.00;;;;5033918;28;20049;-65
2023/09/18 01:22:22;;;;;;;8.38;3.83;;;;;21.80;97864.00;;;;5050798;28;20041;-66
2023/09/18 01:24:49;;;;;;;6.68;3.70;;;;;21.80;97864.00;;;;5049676;28;20061;-66
2023/09/18 01:27:17;;;;;;;7.47;2.78;;;;;21.90;97862.00;;;;5033951;28;20049;-66
2023/09/18 01:29:46;;;;;;;8.73;3.00;;;;;22.00;97883.00;;;;5050466;28;20178;-66
2023/09/18 01:32:13;;;;;;;8.85;3.50;;;;;22.00;97895.00;;;;5051543;28;20048;-65
2023/09/18 01:34:47;;;;;;;7.80;2.88;;;;;21.90;97886.00;;;;5050736;28;20041;-66
2023/09/18 01:37:17;;;;;;;5.70;2.70;;;;;21.90;97884.00;;;;5051582;28;20128;-66
2023/09/18 01:39:47;;;;;;;7.38;3.15;;;;;21.90;97885.00;;;;5051578;28;20062;-66
2023/09/18 01:42:13;;;;;;;6.75;3.33;;;;;22.00;97885.00;;;;5050261;28;20103;-65
2023/09/18 01:44:41;;;;;;;7.75;3.00;;;;;22.10;97882.00;;;;5052948;28;20136;-66
2023/09/18 01:47:11;;;;;;;6.38;3.25;;;;;22.10;97881.00;;;;5055269;28;20451;-66
2023/09/18 01:49:39;;;;;;;6.20;3.30;;;;;22.10;97876.00;;;;5055135;28;20489;-65
2023/09/18 01:52:07;;;;;;;9.35;3.47;;;;;22.10;97878.00;;;;5054100;28;20419;-65
2023/09/18 01:54:35;;;;;;;8.65;3.72;;;;;22.10;97879.00;;;;5053295;28;20087;-66
2023/09/18 01:57:03;;;;;;;5.47;3.45;;;;;22.10;97880.00;;;;5053870;28;20095;-66
2023/09/18 01:59:29;;;;;;;6.88;3.42;;;;;22.10;97870.00;;;;5053984;28;20077;-67
2023/09/18 02:01:56;;;;;;;8.57;3.55;;;;;22.20;97873.00;;;;5053560;28;20049;-66
2023/09/18 02:04:25;;;;;;;7.13;3.50;;;;;22.20;97868.00;;;;5053106;28;20045;-66
2023/09/18 02:07:12;;;;;;;5.53;3.35;;;;;22.20;97869.00;;;;5055090;28;20049;-66
2023/09/18 02:09:39;;;;;;;10.77;3.88;;;;;22.20;97861.00;;;;5054781;28;20494;-66
2023/09/18 02:12:05;;;;;;;6.88;4.18;;;;;22.30;97871.00;;;;5036985;28;20041;-67
2023/09/18 02:14:33;;;;;;;11.73;4.90;;;;;22.20;97865.00;;;;5053065;28;20051;-66
2023/09/18 02:17:00;;;;;;;10.15;5.15;;;;;22.30;97864.00;;;;5053396;28;20083;-67
2023/09/18 02:19:27;;;;;;;9.85;3.80;;;;;22.30;97846.00;;;;5054816;28;20041;-66
2023/09/18 02:21:57;;;;;;;17.10;3.72;;;;;22.50;97839.00;;;;5053634;28;20102;-65
2023/09/18 02:24:23;;;;;;;12.30;4.65;;;;;22.60;97830.00;;;;5052779;28;20098;-66
2023/09/18 02:26:50;;;;;;;13.43;3.95;;;;;22.70;97819.00;;;;5036825;28;20087;-66
2023/09/18 02:29:17;;;;;;;17.48;4.43;;;;;22.80;97809.00;;;;5053525;28;20049;-65
2023/09/18 02:31:43;;;;;;;13.07;4.35;;;;;22.90;97811.00;;;;5053131;28;20047;-66
2023/09/18 02:34:10;;;;;;;18.17;5.25;;;;;23.00;97797.00;;;;5036304;28;20490;-66
2023/09/18 02:36:37;;;;;;;16.90;4.72;;;;;23.00;97804.00;;;;5053067;28;20048;-67
2023/09/18 02:39:04;;;;;;;19.20;4.82;;;;;23.10;97803.00;;;;5053449;28;20391;-66
2023/09/18 02:41:31;;;;;;;14.38;4.00;;;;;23.10;97792.00;;;;5054362;28;20444;-66
2023/09/18 02:43:57;;;;;;;11.88;3.78;;;;;23.00;97786.00;;;;5052544;28;20048;-66
2023/09/18 02:46:24;;;;;;;11.27;3.75;;;;;23.00;97785.00;;;;5052900;28;20075;-66
2023/09/18 02:48:51;;;;;;;13.43;3.78;;;;;23.00;97799.00;;;;5052937;28;20513;-66
2023/09/18 02:51:18;;;;;;;20.67;5.13;;;;;23.00;97801.00;;;;5052616;28;20079;-66
2023/09/18 02:53:45;;;;;;;16.75;4.57;;;;;23.10;97818.00;;;;5052968;28;20037;-66
2023/09/18 02:56:12;;;;;;;17.35;4.60;;;;;23.10;97837.00;;;;5052713;28;20037;-66
2023/09/18 02:58:39;;;;;;;11.82;3.80;;;;;23.00;97847.00;;;;5052675;28;20044;-66
2023/09/18 03:01:07;;;;;;;9.02;4.13;;;;;23.00;97866.00;;;;5052411;28;20065;-66
2023/09/18 03:03:34;;;;;;;23.40;4.90;;;;;22.90;97863.00;;;;5053346;28;20045;-65
2023/09/18 03:06:03;;;;;;;17.33;5.13;;;;;22.90;97853.00;;;;5052521;28;20045;-65
2023/09/18 03:08:30;;;;;;;17.50;4.70;;;;;22.90;97852.00;;;;5036122;28;20048;-65
2023/09/18 03:10:57;;;;;;;19.10;4.65;;;;;22.90;97855.00;;;;5052623;28;20045;-65
2023/09/18 03:13:27;;;;;;;25.00;4.32;;;;;22.90;97863.00;;;;5052640;28;20511;-68
2023/09/18 03:15:54;;;;;;;16.63;4.63;;;;;22.80;97862.00;;;;5053344;28;20067;-65
2023/09/18 03:18:21;;;;;;;16.85;4.20;;;;;22.80;97850.00;;;;5035910;28;20056;-65
2023/09/18 03:20:48;;;;;;;11.57;4.32;;;;;22.80;97857.00;;;;5053826;28;20445;-67
2023/09/18 03:23:15;;;;;;;20.15;4.32;;;;;22.70;97857.00;;;;5052301;28;20049;-66
2023/09/18 03:25:42;;;;;;;18.38;5.03;;;;;22.70;97866.00;;;;5051560;28;20040;-66
2023/09/18 03:28:19;;;;;;;14.25;3.63;;;;;22.70;97874.00;;;;5052281;28;20045;-66
2023/09/18 03:30:46;;;;;;;20.42;5.05;;;;;22.70;97868.00;;;;5052277;28;20410;-66
2023/09/18 03:33:13;;;;;;;16.23;4.60;;;;;22.80;97862.00;;;;5052120;28;20052;-66
2023/09/18 03:35:48;;;;;;;19.45;6.15;;;;;22.80;97850.00;;;;5051383;28;20052;-66
2023/09/18 03:38:18;;;;;;;16.90;4.07;;;;;22.80;97848.00;;;;5052009;28;20425;-66
2023/09/18 03:40:45;;;;;;;18.95;4.57;;;;;22.80;97839.00;;;;5051978;28;20636;-66
2023/09/18 03:43:12;;;;;;;17.05;4.85;;;;;22.80;97837.00;;;;5052028;28;20127;-67
2023/09/18 03:45:42;;;;;;;14.55;3.72;;;;;22.70;97828.00;;;;5050973;28;20041;-67
2023/09/18 03:48:10;;;;;;;17.65;3.88;;;;;22.70;97821.00;;;;5052053;28;20111;-67
2023/09/18 03:50:38;;;;;;;13.88;3.35;;;;;22.80;97822.00;;;;5052038;28;20488;-67
2023/09/18 03:53:06;;;;;;;13.95;3.38;;;;;22.70;97823.00;;;;5052704;28;20041;-67
2023/09/18 03:55:33;;;;;;;11.25;3.72;;;;;22.70;97840.00;;;;5052307;28;20045;-67
2023/09/18 03:58:00;;;;;;;15.02;3.35;;;;;22.70;97819.00;;;;5052806;28;20037;-67
2023/09/18 04:00:27;;;;;;;14.32;4.03;;;;;22.70;97817.00;;;;5051394;28;20507;-67
2023/09/18 04:02:53;;;;;;;14.85;3.60;;;;;22.70;97799.00;;;;5051609;28;20041;-66
2023/09/18 04:05:20;;;;;;;14.35;3.58;;;;;22.60;97793.00;;;;5050321;28;20140;-66
2023/09/18 04:07:47;;;;;;;16.63;3.92;;;;;22.60;97792.00;;;;5051343;28;20087;-67
2023/09/18 04:10:22;;;;;;;11.82;3.45;;;;;22.60;97791.00;;;;5052645;28;20049;-67
2023/09/18 04:12:52;;;;;;;11.35;3.30;;;;;22.50;97777.00;;;;5052869;28;20083;-67
2023/09/18 04:15:20;;;;;;;10.63;3.78;;;;;22.60;97786.00;;;;5050677;28;20041;-66
2023/09/18 04:17:47;;;;;;;14.27;3.63;;;;;22.60;97787.00;;;;5051440;28;20041;-67
2023/09/18 04:20:15;;;;;;;23.15;4.38;;;;;22.50;97801.00;;;;5051333;28;20529;-67
2023/09/18 04:22:49;;;;;;;15.50;3.70;;;;;22.50;97795.00;;;;5051299;28;20053;-67
2023/09/18 04:25:18;;;;;;;13.18;3.70;;;;;22.40;97794.00;;;;5050735;28;20045;-67
2023/09/18 04:27:45;;;;;;;18.23;4.13;;;;;22.40;97775.00;;;;5034640;28;20045;-67
2023/09/18 04:30:13;;;;;;;14.82;3.97;;;;;22.40;97779.00;;;;5052388;28;20047;-67
2023/09/18 04:32:40;;;;;;;13.05;3.78;;;;;22.30;97791.00;;;;5052313;28;20044;-67
2023/09/18 04:35:08;;;;;;;12.35;3.75;;;;;22.20;97799.00;;;;5050338;28;20053;-67
2023/09/18 04:37:37;;;;;;;10.60;3.67;;;;;22.20;97805.00;;;;5050955;28;20057;-67
2023/09/18 04:40:09;;;;;;;11.63;3.60;;;;;22.20;97814.00;;;;5051036;28;20049;-67
2023/09/18 04:42:39;;;;;;;15.48;3.80;;;;;22.20;97801.00;;;;5051078;28;20060;-66
2023/09/18 04:45:07;;;;;;;12.45;3.40;;;;;22.10;97816.00;;;;5050299;28;20051;-66
2023/09/18 04:47:35;;;;;;;12.40;3.53;;;;;22.00;97841.00;;;;5050890;28;20049;-66
2023/09/18 04:50:05;;;;;;;16.88;4.18;;;;;22.00;97818.00;;;;5050906;28;20119;-66
2023/09/18 04:52:36;;;;;;;15.07;4.28;;;;;21.90;97826.00;;;;5035152;28;20076;-66
2023/09/18 04:55:05;;;;;;;15.50;4.10;;;;;21.90;97836.00;;;;5050025;28;20044;-67
2023/09/18 04:57:32;;;;;;;11.77;4.05;;;;;21.90;97844.00;;;;5052191;28;20075;-66
2023/09/18 04:59:59;;;;;;;15.52;3.80;;;;;21.80;97851.00;;;;5050397;28;20139;-66
2023/09/18 05:02:43;;;;;;;10.25;3.95;;;;;21.80;97865.00;;;;5050711;28;20079;-67
2023/09/18 05:05:10;;;;;;;11.80;3.00;;;;;21.80;97862.00;;;;5033381;28;20118;-66
2023/09/18 05:07:37;;;;;;;12.43;3.65;;;;;21.80;97863.00;;;;5050893;28;20052;-66
2023/09/18 05:10:04;;;;;;;11.93;3.55;;;;;21.70;97846.00;;;;5050914;28;20060;-66
2023/09/18 05:12:31;;;;;;;15.60;3.35;;;;;21.70;97842.00;;;;5050678;28;20452;-67
2023/09/18 05:14:58;;;;;;;14.70;4.28;;;;;21.70;97829.00;;;;5050077;28;20045;-66
2023/09/18 05:17:41;;;;;;;14.50;3.83;;;;;21.80;97814.00;;;;5035321;28;20468;-67
2023/09/18 05:20:11;;;;;;;15.98;3.85;;;;;21.70;97798.00;;;;5054668;28;20048;-67
2023/09/18 05:22:38;;;;;;;11.75;3.20;;;;;21.70;97819.00;;;;5055860;28;20132;-66
2023/09/18 05:25:06;;;;;;;14.93;4.93;;;;;21.70;97815.00;;;;5055276;28;20053;-67
2023/09/18 05:27:33;;;;;;;11.90;4.25;;;;;21.70;97798.00;;;;5054522;28;20049;-67
2023/09/18 05:29:59;;;;;;;15.70;4.35;;;;;21.70;97794.00;;;;5054633;28;20508;-66
2023/09/18 05:32:26;;;;;;;11.70;3.50;;;;;21.70;97809.00;;;;5055636;28;20045;-66
2023/09/18 05:34:53;;;;;;;12.75;4.93;;;;;21.70;97816.00;;;;5053709;28;20114;-67
2023/09/18 05:37:19;;;;;;;15.25;3.70;;;;;21.70;97823.00;;;;5054370;28;20036;-67
2023/09/18 05:39:46;;;;;;;15.57;4.18;;;;;21.70;97822.00;;;;5055436;28;20040;-67
2023/09/18 05:42:13;;;;;;;13.15;4.05;;;;;21.70;97835.00;;;;5055312;28;20094;-67
2023/09/18 05:44:40;;;;;;;9.70;3.53;;;;;21.70;97831.00;;;;5054930;28;20087;-65
2023/09/18 05:47:08;;;;;;;10.05;3.65;;;;;21.70;97834.00;;;;5054054;28;20386;-67
2023/09/18 05:49:35;;;;;;;14.82;3.67;;;;;21.70;97849.00;;;;5038078;28;20599;-67
2023/09/18 05:52:02;;;;;;;16.35;4.00;;;;;21.60;97841.00;;;;5054434;28;20044;-67
2023/09/18 05:54:29;;;;;;;11.98;4.45;;;;;21.60;97849.00;;;;5056069;28;20064;-66
2023/09/18 05:56:55;;;;;;;13.25;4.20;;;;;21.60;97842.00;;;;5055285;28;20041;-65
2023/09/18 05:59:22;;;;;;;12.82;3.55;;;;;21.60;97841.00;;;;5055282;28;20045;-65
2023/09/18 06:01:49;;;;;;;12.02;3.63;;;;;21.60;97849.00;;;;5055014;28;20073;-65
2023/09/18 06:04:16;;;;;;;14.25;4.22;;;;;21.60;97855.00;;;;5054555;28;20056;-65
2023/09/18 06:06:43;;;;;;;11.48;3.35;;;;;21.60;97860.00;;;;5053638;28;20140;-66
2023/09/18 06:09:10;;;;;;;18.00;4.22;;;;;21.60;97858.00;;;;5054910;28;20127;-66
2023/09/18 06:11:36;;;;;;;13.93;4.15;;;;;21.60;97848.00;;;;5054951;28;20123;-68
2023/09/18 06:14:03;;;;;;;9.10;3.30;;;;;21.60;97857.00;;;;5054529;28;20061;-67
2023/09/18 06:16:30;;;;;;;14.70;4.57;;;;;21.60;97876.00;;;;5054834;28;20082;-67
2023/09/18 06:18:57;;;;;;;9.60;3.33;;;;;21.60;97884.00;;;;5055083;28;20040;-66
2023/09/18 06:21:23;;;;;;;14.30;3.83;;;;;21.60;97876.00;;;;5054659;28;20041;-66
2023/09/18 06:23:51;;;;;;;13.73;3.50;;;;;21.60;97881.00;;;;5054098;28;20041;-66
2023/09/18 06:26:18;;;;;;;10.68;3.75;;;;;21.60;97888.00;;;;5053316;28;20045;-66
2023/09/18 06:28:44;;;;;;;13.70;3.50;;;;;21.60;97884.00;;;;5053772;28;20041;-66
2023/09/18 06:31:11;;;;;;;10.02;3.38;;;;;21.60;97881.00;;;;5054544;28;20048;-66
2023/09/18 06:33:38;;;;;;;16.33;3.58;;;;;21.70;97891.00;;;;5053953;28;20048;-66
2023/09/18 06:36:04;;;;;;;13.82;3.97;;;;;21.70;97890.00;;;;5054355;28;20041;-66
2023/09/18 06:38:31;;;;;;;10.52;3.42;;;;;21.70;97894.00;;;;5054359;28;20076;-66
2023/09/18 06:40:57;;;;;;;11.90;3.63;;;;;21.70;97891.00;;;;5054329;28;20091;-66
2023/09/18 06:43:24;;;;;;;12.30;3.60;;;;;21.70;97888.00;;;;5053073;28;20162;-66
2023/09/18 06:45:51;;;;;;;12.32;3.40;;;;;21.70;97902.00;;;;5052653;28;20114;-66
2023/09/18 06:48:17;;;;;;;12.32;3.40;;;;;21.80;97914.00;;;;5054253;28;20080;-66
2023/09/18 06:50:44;;;;;;;13.85;4.00;;;;;21.80;97905.00;;;;5052857;28;20049;-67
2023/09/18 06:53:11;;;;;;;13.27;3.47;;;;;21.90;97906.00;;;;5052952;28;20044;-66
2023/09/18 06:55:37;;;;;;;9.18;3.60;;;;;21.90;97911.00;;;;5052315;28;20090;-66
2023/09/18 06:58:04;;;;;;;19.13;3.83;;;;;21.90;97899.00;;;;5052841;28;20135;-66
2023/09/18 07:00:30;;;;;;;11.90;3.38;;;;;21.90;97908.00;;;;5052750;28;20049;-67
2023/09/18 07:02:57;;;;;;;9.80;3.67;;;;;21.90;97899.00;;;;5052754;28;20131;-67
2023/09/18 07:05:24;;;;;;;13.77;3.60;;;;;21.90;97902.00;;;;5053292;28;20494;-67
2023/09/18 07:07:51;;;;;;;7.78;3.28;;;;;21.90;97909.00;;;;5053857;28;20467;-67
2023/09/18 07:10:18;;;;;;;12.40;3.92;;;;;22.00;97901.00;;;;5053775;28;20041;-67
2023/09/18 07:12:45;;;;;;;19.88;4.70;;;;;22.00;97905.00;;;;5053801;28;20055;-67
2023/09/18 07:15:11;;;;;;;6.88;3.72;;;;;22.10;97902.00;;;;5051849;28;20072;-67
2023/09/18 07:17:38;;;;;;;9.48;3.42;;;;;22.10;97903.00;;;;5052422;28;20045;-67
2023/09/18 07:20:14;;;;;;;8.32;2.95;;;;;22.20;97914.00;;;;5053539;28;20052;-67
2023/09/18 07:22:46;;;;;;;9.80;2.90;;;;;22.20;97908.00;;;;5035856;28;20148;-67
2023/09/18 07:25:13;;;;;;;8.32;3.50;;;;;22.30;97908.00;;;;5052882;28;20045;-67
2023/09/18 07:27:43;;;;;;;8.98;2.80;;;;;22.30;97912.00;;;;5035566;28;20044;-67
2023/09/18 07:30:19;;;;;;;7.03;2.97;;;;;22.30;97909.00;;;;5053532;28;20405;-67
2023/09/18 07:32:46;;;;;;;10.48;3.58;;;;;22.30;97916.00;;;;5053528;28;20053;-66
2023/09/18 07:35:15;;;;;;;9.05;2.95;;;;;22.30;97919.00;;;;5051676;28;20044;-67
2023/09/18 07:37:45;;;;;;;12.70;3.17;;;;;22.40;97912.00;;;;5052220;28;20037;-67
2023/09/18 07:40:11;;;;;;;10.48;3.17;;;;;22.50;97901.00;;;;5051454;28;20044;-67
2023/09/18 07:42:38;;;;;;;9.05;3.08;;;;;22.60;97913.00;;;;5051549;28;20136;-66
2023/09/18 07:45:05;;;;;;;10.38;3.10;;;;;22.70;97927.00;;;;5052512;28;20128;-67
2023/09/18 07:47:32;;;;;;;9.05;2.67;;;;;22.70;97924.00;;;;5053162;28;20048;-67
2023/09/18 07:49:59;;;;;;;9.93;3.25;;;;;22.80;97934.00;;;;5051928;28;20045;-67
2023/09/18 07:52:26;;;;;;;8.70;2.47;;;;;22.80;97922.00;;;;5053104;28;20041;-66
2023/09/18 07:54:52;;;;;;;5.38;2.40;;;;;22.90;97922.00;;;;5052201;28;20131;-64
2023/09/18 07:57:20;;;;;;;9.30;2.60;;;;;23.00;97935.00;;;;5051714;28;20065;-65
2023/09/18 07:59:47;;;;;;;7.15;2.50;;;;;23.00;97939.00;;;;5052803;28;20068;-66
2023/09/18 08:02:13;;;;;;;6.70;1.88;;;;;22.90;97938.00;;;;5053192;28;20052;-66
2023/09/18 08:04:42;;;;;;;6.15;2.10;;;;;22.90;97939.00;;;;5052610;28;20160;-66
2023/09/18 08:07:09;;;;;;;6.18;1.98;;;;;22.90;97932.00;;;;5053121;28;20045;-65
2023/09/18 08:09:36;;;;;;;10.60;2.90;;;;;23.00;97932.00;;;;5053098;28;20123;-66
2023/09/18 08:12:03;;;;;;;9.63;2.20;;;;;23.00;97925.00;;;;5052763;28;20091;-66
2023/09/18 08:14:30;;;;;;;5.85;2.15;;;;;23.00;97917.00;;;;5052102;28;20543;-66
2023/09/18 08:16:58;;;;;;;13.13;2.28;;;;;23.00;97915.00;;;;5052625;28;20578;-66
2023/09/18 08:19:26;;;;;;;4.40;1.52;;;;;23.00;97929.00;;;;5052676;28;20036;-66
2023/09/18 08:21:54;;;;;;;6.80;1.75;;;;;23.00;97935.00;;;;5052594;28;20448;-65
2023/09/18 08:24:21;;;;;;;7.30;2.10;;;;;23.00;97936.00;;;;5051784;28;20498;-65
2023/09/18 08:26:48;;;;;;;7.72;2.05;;;;;23.00;97940.00;;;;5052284;28;20045;-65
2023/09/18 08:29:15;;;;;;;8.68;1.85;;;;;23.10;97933.00;;;;5051133;28;20052;-65
2023/09/18 08:31:42;;;;;;;2.75;1.40;;;;;23.10;97924.00;;;;5052063;28;20041;-65
2023/09/18 08:34:09;;;;;;;6.53;2.08;;;;;23.20;97930.00;;;;5051729;28;20048;-65
2023/09/18 08:36:35;;;;;;;3.55;1.15;;;;;23.30;97918.00;;;;5052125;28;20383;-65
2023/09/18 08:39:05;;;;;;;7.35;1.88;;;;;23.40;97936.00;;;;5050908;28;20064;-65
2023/09/18 08:41:33;;;;;;;5.85;1.65;;;;;23.40;97924.00;;;;5052273;28;20075;-65
2023/09/18 08:44:03;;;;;;;6.45;2.15;;;;;23.50;97903.00;;;;5051643;28;20045;-65
2023/09/18 08:46:30;;;;;;;5.88;1.50;;;;;23.60;97914.00;;;;5052072;28;20045;-65
2023/09/18 08:49:00;;;;;;;4.35;1.80;;;;;23.70;97923.00;;;;5050919;28;20048;-65
2023/09/18 08:51:28;;;;;;;3.75;1.63;;;;;23.80;97924.00;;;;5052023;28;20048;-65
2023/09/18 08:53:56;;;;;;;4.95;1.45;;;;;23.90;97939.00;;;;5051403;28;20037;-65
2023/09/18 08:56:23;;;;;;;6.05;1.98;;;;;23.90;97945.00;;;;5052294;28;20045;-66
2023/09/18 08:58:50;;;;;;;7.22;1.58;;;;;23.80;97941.00;;;;5051162;28;20044;-65
2023/09/18 09:01:17;;;;;;;6.97;1.48;;;;;23.80;97933.00;;;;5051027;28;20470;-65
2023/09/18 09:03:45;;;;;;;4.55;1.80;;;;;23.80;97944.00;;;;5034074;28;20056;-65
2023/09/18 09:06:12;;;;;;;6.95;1.70;;;;;23.80;97942.00;;;;5051163;28;20107;-65
2023/09/18 09:08:39;;;;;;;9.27;1.75;;;;;23.80;97946.00;;;;5050567;28;20045;-65
2023/09/18 09:11:06;;;;;;;4.18;1.35;;;;;23.80;97951.00;;;;5050705;28;20075;-65
2023/09/18 09:13:33;;;;;;;1.98;1.30;;;;;23.80;97942.00;;;;5051347;28;20486;-65
2023/09/18 09:16:11;;;;;;;6.72;1.50;;;;;23.90;97938.00;;;;5051644;28;20041;-65
2023/09/18 09:18:47;;;;;;;3.85;1.60;;;;;24.10;97920.00;;;;5050515;28;20068;-65
2023/09/18 09:21:14;;;;;;;5.55;1.45;;;;;24.20;97929.00;;;;5052109;28;20466;-67
2023/09/18 09:23:59;;;;;;;5.05;1.30;;;;;24.40;97934.00;;;;5051240;28;20091;-66
2023/09/18 09:26:26;;;;;;;2.83;1.27;;;;;24.50;97935.00;;;;5051834;28;20075;-66
2023/09/18 09:28:53;;;;;;;2.60;1.38;;;;;24.50;97948.00;;;;5050212;28;20053;-66
2023/09/18 09:31:27;;;;;;;2.88;1.00;;;;;24.60;97958.00;;;;5051568;28;20040;-66
2023/09/18 09:33:55;;;;;;;3.13;1.50;;;;;24.60;97951.00;;;;5050093;28;20071;-66
2023/09/18 09:36:22;;;;;;;5.72;1.88;;;;;24.70;97940.00;;;;5051657;28;20123;-66
2023/09/18 09:38:54;;;;;;;3.67;1.20;;;;;24.80;97951.00;;;;5051709;28;20045;-65
2023/09/18 09:41:22;;;;;;;4.20;1.13;;;;;24.80;97946.00;;;;5051748;28;20048;-65
2023/09/18 09:43:49;;;;;;;3.60;1.20;;;;;24.80;97942.00;;;;5050875;28;20048;-65
2023/09/18 09:46:17;;;;;;;5.45;1.40;;;;;24.90;97943.00;;;;5051373;28;20501;-65
2023/09/18 09:49:01;;;;;;;4.40;1.20;;;;;24.90;97949.00;;;;5051535;28;20095;-65
2023/09/18 09:51:29;;;;;;;2.38;1.00;;;;;24.80;97942.00;;;;5051375;28;20049;-66
2023/09/18 09:53:58;;;;;;;4.53;1.45;;;;;24.70;97943.00;;;;5050928;28;20073;-66
2023/09/18 09:56:46;;;;;;;4.32;1.13;;;;;24.70;97936.00;;;;5049997;28;20077;-67
2023/09/18 09:59:14;;;;;;;4.00;1.52;;;;;24.80;97952.00;;;;5050231;28;20091;-65
2023/09/18 10:01:41;;;;;;;7.55;1.27;;;;;24.90;97948.00;;;;5049998;28;20420;-65
2023/09/18 10:04:12;;;;;;;3.60;1.15;;;;;24.80;97954.00;;;;5050426;28;20071;-66
2023/09/18 10:06:42;;;;;;;4.57;1.75;;;;;24.90;97964.00;;;;5055143;28;20120;-65
2023/09/18 10:09:11;;;;;;;3.00;1.45;;;;;24.80;97973.00;;;;5055199;28;20041;-66
2023/09/18 10:11:44;;;;;;;7.82;1.38;;;;;24.90;97961.00;;;;5054937;28;20053;-65
2023/09/18 10:14:20;;;;;;;5.50;1.30;;;;;25.00;97961.00;;;;5053274;28;20094;-67
2023/09/18 10:16:54;;;;;;;8.55;6.80;;;;;25.10;97966.00;;;;5053260;28;20041;-66
2023/09/18 10:19:28;;;;;;;6.32;1.95;;;;;25.00;97957.00;;;;5054854;28;20099;-66
2023/09/18 10:22:05;;;;;;;;;;;;;25.00;97950.00;;;;5055163;28;20079;-65
2023/09/18 10:24:37;;;;;;;6.03;1.65;;;;;25.00;97948.00;;;;5052513;28;19927;-66
2023/09/18 10:27:05;;;;;;;5.32;1.45;;;;;25.10;97961.00;;;;5053140;28;20144;-66
2023/09/18 10:29:34;;;;;;;2.83;1.10;;;;;25.20;97970.00;;;;5053114;28;20052;-66
2023/09/18 10:32:07;;;;;;;5.05;1.20;;;;;25.20;97970.00;;;;5054622;28;20053;-66
2023/09/18 10:34:34;;;;;;;5.03;1.67;;;;;25.10;97964.00;;;;5053852;28;20508;-66
2023/09/18 10:37:09;;;;;;;5.00;1.63;;;;;25.00;97954.00;;;;5054407;28;20398;-65
2023/09/18 10:39:37;;;;;;;3.83;1.52;;;;;25.00;97952.00;;;;5054295;28;20041;-65
2023/09/18 10:42:07;;;;;;;5.35;1.52;;;;;25.10;97950.00;;;;5052966;28;20469;-66
2023/09/18 10:44:35;;;;;;;3.33;1.20;;;;;25.20;97954.00;;;;5053284;28;20049;-66
2023/09/18 10:47:05;;;;;;;3.33;1.45;;;;;25.20;97939.00;;;;5054079;28;20037;-66
2023/09/18 10:49:35;;;;;;;6.13;1.55;;;;;25.20;97940.00;;;;5054308;28;20041;-65
2023/09/18 10:52:03;;;;;;;4.15;1.35;;;;;25.20;97941.00;;;;5054180;28;20045;-65
2023/09/18 10:54:31;;;;;;;5.78;1.48;;;;;25.20;97950.00;;;;5052128;28;20099;-67
2023/09/18 10:56:58;;;;;;;2.13;1.13;;;;;25.20;97947.00;;;;5054126;28;20406;-65
2023/09/18 10:59:27;;;;;;;4.90;1.70;;;;;25.10;97942.00;;;;5054100;28;20069;-65
2023/09/18 11:01:54;;;;;;;3.03;1.50;;;;;24.90;97947.00;;;;5053836;28;20045;-66
2023/09/18 11:04:22;;;;;;;4.03;1.60;;;;;24.90;97958.00;;;;5053355;28;20136;-66
2023/09/18 11:06:55;;;;;;;4.35;1.50;;;;;24.90;97944.00;;;;5052605;28;20045;-65
2023/09/18 11:09:31;;;;;;;4.93;1.48;;;;;25.00;97943.00;;;;5052672;28;20045;-65
2023/09/18 11:12:02;;;;;;;6.90;1.50;;;;;25.00;97944.00;;;;5053734;28;20052;-65
2023/09/18 11:15:08;;;;;;;6.57;1.55;;;;;25.10;97937.00;;;;5051694;28;20049;-65
2023/09/18 11:17:36;;;;;;;2.40;1.00;;;;;25.00;97942.00;;;;5031007;28;20128;-65
2023/09/18 11:20:16;;;;;;;6.45;2.22;;;;;25.00;97942.00;;;;5031261;28;20056;-66
2023/09/18 11:22:48;;;;;;;3.40;1.40;;;;;24.90;97946.00;;;;5035293;28;20520;-65
2023/09/18 11:25:31;;;;;;;4.55;1.45;;;;;24.90;97951.00;;;;5051633;28;20102;-66
2023/09/18 11:27:57;;;;;;;8.43;1.90;;;;;24.90;97944.00;;;;5053336;28;20047;-66
2023/09/18 11:30:25;;;;;;;2.75;1.48;;;;;25.00;97949.00;;;;5053404;28;20037;-66
2023/09/18 11:32:52;;;;;;;6.57;1.45;;;;;25.00;97959.00;;;;5053373;28;20563;-66
2023/09/18 11:35:19;;;;;;;4.05;1.70;;;;;25.10;97952.00;;;;5051572;28;20049;-67
2023/09/18 11:37:46;;;;;;;3.78;1.73;;;;;25.10;97950.00;;;;5052125;28;20044;-67
2023/09/18 11:40:37;;;;;;;4.60;1.67;;;;;25.30;97947.00;;;;5053328;28;20047;-67
2023/09/18 11:43:25;;;;;;;4.63;2.35;;;;;25.30;97956.00;;;;5053344;28;20114;-67
2023/09/18 11:45:56;;;;;;;4.90;1.67;;;;;25.30;97951.00;;;;5052985;28;20044;-68
2023/09/18 11:48:27;;;;;;;5.18;2.00;;;;;25.40;97953.00;;;;5053040;28;20060;-68
2023/09/18 11:50:55;;;;;;;4.90;1.90;;;;;25.50;97958.00;;;;5053067;28;20124;-68
2023/09/18 11:53:24;;;;;;;2.03;1.23;;;;;25.60;97964.00;;;;5053024;28;20048;-68
2023/09/18 11:55:51;;;;;;;4.40;1.73;;;;;25.60;97961.00;;;;5052668;28;20040;-68
2023/09/18 11:58:22;;;;;;;3.65;1.42;;;;;25.60;97953.00;;;;5052900;28;20137;-68
2023/09/18 12:00:50;;;;;;;5.55;1.67;;;;;25.70;97950.00;;;;5052787;28;20091;-67
2023/09/18 12:03:27;;;;;;;10.85;2.58;;;;;25.90;97948.00;;;;5052622;28;20045;-67
2023/09/18 12:05:59;;;;;;;2.72;1.35;;;;;26.00;97947.00;;;;5052668;28;20049;-67
2023/09/18 12:08:26;;;;;;;4.72;1.67;;;;;26.00;97946.00;;;;5051271;28;20056;-67
2023/09/18 12:10:54;;;;;;;3.53;1.80;;;;;26.00;97958.00;;;;5052401;28;20406;-67
2023/09/18 12:13:21;;;;;;;3.72;1.60;;;;;25.90;97952.00;;;;5051309;28;20041;-68
2023/09/18 12:15:56;;;;;;;4.47;1.58;;;;;25.80;97946.00;;;;5051782;28;20045;-67
2023/09/18 12:18:24;;;;;;;3.75;1.55;;;;;25.80;97939.00;;;;5052557;28;20125;-67
2023/09/18 12:20:53;;;;;;;5.40;1.95;;;;;25.90;97942.00;;;;5051145;28;20053;-67